Alexander, Illinois
Current Conditions -  °F | °C
As of 9:15 PM on Friday 19 Dec 2014 (Local Time) from KIJX Reporting Station
Overcast Overcast  
Wind Chill: 28°   Ceiling: 5000
Heat Index: 33°   Visibility: 7mi
Dew Point: 28°   Wind: 6mph
Humidity: 83%   Direction: 90°E
Pressure: 30.26"   Gusts: NA
Location:  39.72°N, 90.04°W
Report Text: KIJX 200315Z AUTO 09005KT 7SM OVC050 01/M02 A3026 RMK AO2 T00061020
Loading
Personal Weather Stations






























Interactive Weather Map New forecast layout! Learn more

10-Day Weather Forecast

Advertisements
Track Severe Weather on mobile